Terminal Aerodrome Forecast
Issued by NWS Jackson, MS

Home | Current Version | Previous Version | Text Only | Print | Product List | Glossary On
Versions: 1 2 3 4 5 6 7 8 9 10 11 12 13 14
000
FTUS44 KJAN 251120
TAFGLH
TAF
KGLH 251120Z 2512/2612 18005KT P6SM OVC250
     FM251500 19012KT P6SM SCT040 BKN250
     FM260000 18008KT P6SM SCT250
     FM260900 18006KT P6SM BKN015=

USA.gov is the U.S. government's official web portal to all federal, state and local government web resources and services.